createdAt,value
2019-05-01T00:02:36.894Z,33.25
2019-05-01T00:05:27.897Z,33.41
2019-05-01T00:08:00.055Z,33.33
2019-05-01T00:10:32.669Z,33.24
2019-05-01T00:13:05.227Z,33.17
2019-05-01T00:15:38.929Z,33.17
2019-05-01T00:18:10.947Z,32.96
2019-05-01T00:20:42.734Z,33.04
2019-05-01T00:23:14.653Z,33.01
2019-05-01T00:25:46.458Z,33.01
2019-05-01T00:28:19.316Z,32.86
2019-05-01T00:30:51.158Z,32.86
2019-05-01T00:33:22.895Z,33.03
2019-05-01T00:35:54.662Z,33.08
2019-05-01T00:38:26.302Z,33.08
2019-05-01T00:40:58.411Z,33.12
2019-05-01T00:43:30.183Z,33.12
2019-05-01T00:46:02.599Z,33.22
2019-05-01T00:48:34.751Z,33.16
2019-05-01T00:51:06.631Z,33.16
2019-05-01T00:53:39.725Z,33.34
2019-05-01T00:56:21.992Z,33.13
2019-05-01T00:59:02.829Z,33.18
2019-05-01T01:02:05.866Z,33.40
2019-05-01T01:04:37.840Z,33.40
2019-05-01T01:07:09.934Z,33.30
2019-05-01T01:09:41.563Z,33.17
2019-05-01T01:12:13.565Z,33.44
2019-05-01T01:14:45.152Z,33.44
2019-05-01T01:17:17.209Z,33.68
2019-05-01T01:19:49.081Z,33.68
2019-05-01T01:22:21.244Z,33.45
2019-05-01T01:24:53.683Z,34.06
2019-05-01T01:27:26.731Z,34.06
2019-05-01T01:29:58.483Z,33.99
2019-05-01T01:32:30.648Z,34.29
2019-05-01T01:35:02.494Z,34.29
2019-05-01T01:37:35.401Z,34.34
2019-05-01T01:40:08.288Z,34.34
2019-05-01T01:42:41.533Z,34.53
2019-05-01T01:45:32.327Z,34.53
2019-05-01T01:48:18.301Z,34.63
2019-05-01T01:50:50.062Z,34.67
2019-05-01T01:53:24.347Z,34.67
2019-05-01T01:55:56.889Z,34.86
2019-05-01T01:58:29.118Z,35.00
2019-05-01T02:01:22.029Z,35.00
2019-05-01T02:03:58.724Z,35.10
2019-05-01T02:06:30.486Z,35.00
2019-05-01T02:09:02.353Z,35.06
2019-05-01T02:11:35.626Z,35.24
2019-05-01T02:14:07.877Z,35.24
2019-05-01T02:16:39.703Z,35.46
2019-05-01T02:19:11.635Z,35.52
2019-05-01T02:21:43.297Z,35.63
2019-05-01T02:24:15.048Z,35.63
2019-05-01T02:26:49.650Z,36.05
2019-05-01T02:29:30.651Z,36.05
2019-05-01T02:32:02.996Z,36.28
2019-05-01T02:34:36.958Z,36.31
2019-05-01T02:37:11.623Z,36.31
2019-05-01T02:39:46.083Z,36.48
2019-05-01T02:42:21.008Z,36.73
2019-05-01T02:44:56.519Z,36.78
2019-05-01T02:47:33.562Z,36.78
2019-05-01T02:50:10.690Z,36.91
2019-05-01T02:52:44.885Z,36.91
2019-05-01T02:55:29.855Z,37.06
2019-05-01T02:58:02.724Z,37.07
2019-05-01T03:00:35.436Z,37.19
2019-05-01T03:03:08.026Z,37.41
2019-05-01T03:05:42.587Z,37.51
2019-05-01T03:08:14.744Z,37.59
2019-05-01T03:10:47.438Z,37.59
2019-05-01T03:13:19.720Z,37.94
2019-05-01T03:15:52.469Z,37.94
2019-05-01T03:18:30.437Z,38.06
2019-05-01T03:21:24.210Z,38.06
2019-05-01T03:24:04.641Z,38.16
2019-05-01T03:26:37.347Z,38.27
2019-05-01T03:29:10.173Z,38.22
2019-05-01T03:31:42.790Z,38.45
2019-05-01T03:34:14.873Z,38.45
2019-05-01T03:36:46.969Z,38.41
2019-05-01T03:39:21.137Z,38.65
2019-05-01T03:41:54.027Z,38.65
2019-05-01T03:44:26.317Z,38.83
2019-05-01T03:46:58.904Z,38.83
2019-05-01T03:49:31.025Z,38.89
2019-05-01T03:52:03.590Z,39.07
2019-05-01T03:54:35.631Z,39.07
2019-05-01T03:57:12.395Z,39.03
2019-05-01T03:59:44.275Z,39.16
2019-05-01T04:02:36.454Z,39.25
2019-05-01T04:05:08.597Z,39.07
2019-05-01T04:07:41.880Z,39.18
2019-05-01T04:10:14.464Z,39.18
2019-05-01T04:12:47.099Z,39.42
2019-05-01T04:15:19.478Z,39.45
2019-05-01T04:17:55.398Z,39.45
2019-05-01T04:20:27.795Z,39.42
2019-05-01T04:23:00.847Z,39.42
2019-05-01T04:25:36.662Z,39.53
2019-05-01T04:28:26.365Z,39.40
2019-05-01T04:31:14.731Z,39.70
2019-05-01T04:33:48.437Z,39.58
2019-05-01T04:36:27.255Z,39.44
2019-05-01T04:38:59.775Z,39.39
2019-05-01T04:41:32.148Z,39.20
2019-05-01T04:44:04.223Z,39.18
2019-05-01T04:46:37.335Z,39.38
2019-05-01T04:49:09.669Z,39.51
2019-05-01T04:51:42.209Z,39.51
2019-05-01T04:54:14.717Z,39.26
2019-05-01T04:56:47.280Z,39.68
2019-05-01T04:59:22.692Z,39.68
2019-05-01T05:01:58.274Z,39.95
2019-05-01T05:04:30.162Z,39.95
2019-05-01T05:07:03.026Z,39.65
2019-05-01T05:09:45.616Z,39.99
2019-05-01T05:12:30.923Z,39.84
2019-05-01T05:15:20.706Z,39.84
2019-05-01T05:17:52.583Z,39.61
2019-05-01T05:20:25.097Z,39.92
2019-05-01T05:22:57.262Z,39.71
2019-05-01T05:25:29.409Z,39.98
2019-05-01T05:28:02.039Z,39.98
2019-05-01T05:30:34.671Z,39.91
2019-05-01T05:33:18.225Z,39.91
2019-05-01T05:35:44.019Z,39.92
2019-05-01T05:38:24.795Z,40.38
2019-05-01T05:41:00.371Z,40.38
2019-05-01T05:43:32.574Z,40.19
2019-05-01T05:46:05.073Z,40.18
2019-05-01T05:48:36.897Z,40.55
2019-05-01T05:51:18.940Z,40.02
2019-05-01T05:53:56.587Z,40.02
2019-05-01T05:56:34.135Z,39.84
2019-05-01T05:59:12.763Z,40.09
2019-05-01T06:01:55.794Z,40.07
2019-05-01T06:04:58.764Z,40.07
2019-05-01T06:07:46.603Z,40.11
2019-05-01T06:10:29.608Z,40.59
2019-05-01T06:13:21.838Z,40.59
2019-05-01T06:16:05.203Z,40.38
2019-05-01T06:18:54.154Z,40.32
2019-05-01T06:21:42.576Z,40.55
2019-05-01T06:24:21.191Z,40.20
2019-05-01T06:26:53.200Z,40.20
2019-05-01T06:29:25.146Z,40.70
2019-05-01T06:31:58.851Z,40.70
2019-05-01T06:34:31.366Z,40.72
2019-05-01T06:37:03.283Z,40.48
2019-05-01T06:39:35.764Z,40.26
2019-05-01T06:42:09.748Z,40.53
2019-05-01T06:44:54.196Z,40.53
2019-05-01T06:47:44.296Z,40.65
2019-05-01T06:50:37.088Z,40.90
2019-05-01T06:53:08.093Z,40.69
2019-05-01T06:55:39.992Z,40.81
2019-05-01T06:58:14.745Z,40.81
2019-05-01T07:00:45.456Z,40.66
2019-05-01T07:03:17.841Z,40.66
2019-05-01T07:05:54.380Z,41.04
2019-05-01T07:08:24.805Z,40.93
2019-05-01T07:10:57.449Z,40.99
2019-05-01T07:13:29.114Z,41.18
2019-05-01T07:16:03.259Z,41.18
2019-05-01T07:18:36.145Z,40.82
2019-05-01T07:21:08.048Z,40.82
2019-05-01T07:23:39.885Z,40.84
2019-05-01T07:26:13.733Z,41.15
2019-05-01T07:28:47.242Z,40.85
2019-05-01T07:31:19.821Z,40.85
2019-05-01T07:33:52.477Z,40.97
2019-05-01T07:36:24.745Z,41.21
2019-05-01T07:38:56.594Z,41.26
2019-05-01T07:41:29.279Z,41.26
2019-05-01T07:44:16.281Z,41.18
2019-05-01T07:47:06.913Z,40.71
2019-05-01T07:50:05.594Z,40.71
2019-05-01T07:52:37.787Z,41.17
2019-05-01T07:55:13.139Z,41.37
2019-05-01T07:57:46.319Z,41.37
2019-05-01T08:00:29.660Z,41.36
2019-05-01T08:03:02.637Z,41.46
2019-05-01T08:05:35.620Z,41.04
2019-05-01T08:08:08.178Z,41.04
2019-05-01T08:10:40.980Z,41.42
2019-05-01T08:13:12.747Z,41.42
2019-05-01T08:15:44.584Z,41.68
2019-05-01T08:18:24.107Z,41.25
2019-05-01T08:21:08.381Z,41.25
2019-05-01T08:23:42.640Z,41.80
2019-05-01T08:26:14.226Z,41.80
2019-05-01T08:29:06.835Z,41.73
2019-05-01T08:31:48.784Z,41.35
2019-05-01T08:34:25.408Z,41.05
2019-05-01T08:36:55.853Z,40.95
2019-05-01T08:39:28.378Z,41.02
2019-05-01T08:42:03.070Z,41.02
2019-05-01T08:44:36.690Z,41.30
2019-05-01T08:47:27.763Z,41.30
2019-05-01T08:50:05.453Z,41.68
2019-05-01T08:52:37.422Z,41.45
2019-05-01T08:55:10.837Z,41.45
2019-05-01T08:57:42.953Z,41.65
2019-05-01T09:00:15.190Z,41.78
2019-05-01T09:02:47.120Z,41.78
2019-05-01T09:05:28.558Z,41.90
2019-05-01T09:07:55.957Z,41.95
2019-05-01T09:10:29.017Z,41.87
2019-05-01T09:13:00.817Z,41.62
2019-05-01T09:15:32.902Z,41.62
2019-05-01T09:18:04.551Z,41.83
2019-05-01T09:20:37.334Z,41.83
2019-05-01T09:23:13.901Z,41.79
2019-05-01T09:25:49.546Z,41.70
2019-05-01T09:28:27.680Z,41.39
2019-05-01T09:31:03.375Z,41.56
2019-05-01T09:33:37.159Z,41.56
2019-05-01T09:36:09.092Z,41.32
2019-05-01T09:38:41.580Z,41.52
2019-05-01T09:41:14.578Z,41.05
2019-05-01T09:43:46.804Z,41.05
2019-05-01T09:46:18.813Z,41.06
2019-05-01T09:48:51.500Z,41.40
2019-05-01T09:51:47.525Z,41.47
2019-05-01T09:54:38.187Z,41.39
2019-05-01T09:57:10.161Z,41.56
2019-05-01T09:59:42.403Z,41.58
2019-05-01T10:02:15.037Z,41.33
2019-05-01T10:04:46.707Z,41.54
2019-05-01T10:07:19.371Z,41.54
2019-05-01T10:09:52.219Z,41.70
2019-05-01T10:12:25.778Z,41.70
2019-05-01T10:14:57.664Z,41.49
2019-05-01T10:17:29.552Z,41.49
2019-05-01T10:20:01.359Z,41.57
2019-05-01T10:22:37.296Z,41.40
2019-05-01T10:25:08.467Z,41.40
2019-05-01T10:27:44.332Z,41.30
2019-05-01T10:30:24.283Z,40.91
2019-05-01T10:33:00.611Z,40.75
2019-05-01T10:35:42.988Z,40.75
2019-05-01T10:38:14.015Z,41.05
2019-05-01T10:40:46.521Z,41.23
2019-05-01T10:43:18.969Z,41.24
2019-05-01T10:45:50.900Z,41.07
2019-05-01T10:48:22.474Z,40.84
2019-05-01T10:50:54.776Z,40.84
2019-05-01T10:53:26.545Z,40.86
2019-05-01T10:55:59.471Z,40.86
2019-05-01T10:58:31.561Z,41.06
2019-05-01T11:01:16.102Z,41.20
2019-05-01T11:03:47.849Z,41.20
2019-05-01T11:06:19.767Z,41.22
2019-05-01T11:08:51.976Z,41.22
2019-05-01T11:11:23.902Z,41.31
2019-05-01T11:13:56.036Z,41.31
2019-05-01T11:16:28.048Z,41.21
2019-05-01T11:18:59.719Z,41.21
2019-05-01T11:21:31.559Z,41.26
2019-05-01T11:24:03.092Z,41.22
2019-05-01T11:26:35.319Z,41.18
2019-05-01T11:29:07.366Z,41.13
2019-05-01T11:31:49.069Z,41.22
2019-05-01T11:34:38.647Z,41.24
2019-05-01T11:37:28.825Z,41.10
2019-05-01T11:40:31.984Z,41.15
2019-05-01T11:43:03.681Z,41.19
2019-05-01T11:45:35.989Z,41.14
2019-05-01T11:48:08.223Z,41.14
2019-05-01T11:50:40.087Z,40.99
2019-05-01T11:53:11.935Z,41.20
2019-05-01T11:55:43.764Z,40.99
2019-05-01T11:58:15.809Z,40.99
2019-05-01T12:00:48.781Z,40.93
2019-05-01T12:03:23.837Z,40.93
2019-05-01T12:05:55.489Z,40.98
2019-05-01T12:08:27.365Z,40.98
2019-05-01T12:10:59.906Z,40.90
2019-05-01T12:13:43.249Z,40.85
2019-05-01T12:16:16.510Z,40.82
2019-05-01T12:18:48.292Z,40.82
2019-05-01T12:21:20.068Z,40.71
2019-05-01T12:23:51.868Z,40.69
2019-05-01T12:26:23.891Z,40.70
2019-05-01T12:28:55.528Z,40.70
2019-05-01T12:31:27.287Z,40.63
2019-05-01T12:33:59.007Z,40.67
2019-05-01T12:36:36.593Z,40.56
2019-05-01T12:39:06.565Z,40.56
2019-05-01T12:41:46.048Z,40.48
2019-05-01T12:44:18.091Z,40.51
2019-05-01T12:46:59.288Z,40.45
2019-05-01T12:49:31.398Z,40.37
2019-05-01T12:52:10.715Z,40.36
2019-05-01T12:55:03.204Z,40.21
2019-05-01T12:57:35.014Z,40.21
2019-05-01T13:00:09.274Z,40.10
2019-05-01T13:02:41.317Z,39.82
2019-05-01T13:05:13.218Z,39.77
2019-05-01T13:07:45.103Z,39.77
2019-05-01T13:10:17.053Z,39.76
2019-05-01T13:12:48.910Z,39.72
2019-05-01T13:15:20.698Z,39.54
2019-05-01T13:17:53.150Z,39.54
2019-05-01T13:20:24.526Z,39.32
2019-05-01T13:22:56.372Z,39.32
2019-05-01T13:25:27.817Z,39.34
2019-05-01T13:28:24.145Z,39.20
2019-05-01T13:31:14.680Z,39.20
2019-05-01T13:33:46.943Z,39.05
2019-05-01T13:36:18.703Z,38.85
2019-05-01T13:38:50.613Z,38.85
2019-05-01T13:41:22.196Z,38.81
2019-05-01T13:43:53.879Z,38.88
2019-05-01T13:46:25.604Z,38.81
2019-05-01T13:48:57.536Z,38.66
2019-05-01T13:51:29.204Z,38.66
2019-05-01T13:54:01.711Z,38.64
2019-05-01T13:56:33.487Z,38.68
2019-05-01T13:59:07.456Z,38.63
2019-05-01T14:01:39.462Z,38.47
2019-05-01T14:04:11.872Z,38.58
2019-05-01T14:06:43.796Z,38.58
2019-05-01T14:09:17.553Z,38.49
2019-05-01T14:11:49.863Z,38.49
2019-05-01T14:14:21.631Z,38.39
2019-05-01T14:16:53.440Z,38.41
2019-05-01T14:19:25.153Z,38.29
2019-05-01T14:22:21.322Z,38.29
2019-05-01T14:24:56.794Z,38.31
2019-05-01T14:27:28.558Z,38.31
2019-05-01T14:30:00.274Z,38.13
2019-05-01T14:32:32.124Z,38.18
2019-05-01T14:35:03.715Z,38.18
2019-05-01T14:37:54.025Z,38.35
2019-05-01T14:40:27.471Z,38.35
2019-05-01T14:42:59.379Z,38.27
2019-05-01T14:45:31.390Z,38.25
2019-05-01T14:48:03.495Z,38.20
2019-05-01T14:50:35.851Z,38.10
2019-05-01T14:53:08.016Z,38.16
2019-05-01T14:55:40.507Z,38.18
2019-05-01T14:58:13.510Z,38.11
2019-05-01T15:00:45.291Z,38.00
2019-05-01T15:03:17.487Z,38.10
2019-05-01T15:05:49.354Z,38.10
2019-05-01T15:08:21.265Z,38.02
2019-05-01T15:10:53.610Z,38.02
2019-05-01T15:13:34.998Z,37.94
2019-05-01T15:16:14.085Z,37.94
2019-05-01T15:19:07.973Z,37.82
2019-05-01T15:21:40.123Z,37.86
2019-05-01T15:24:11.898Z,37.79
2019-05-01T15:26:43.830Z,37.75
2019-05-01T15:29:15.679Z,37.64
2019-05-01T15:31:47.419Z,37.56
2019-05-01T15:34:18.765Z,37.40
2019-05-01T15:36:50.847Z,37.16
2019-05-01T15:39:37.193Z,37.16
2019-05-01T15:42:26.686Z,37.17
2019-05-01T15:44:58.610Z,37.18
2019-05-01T15:47:30.423Z,37.29
2019-05-01T15:50:02.299Z,37.20
2019-05-01T15:52:33.996Z,36.93
2019-05-01T15:55:06.372Z,36.93
2019-05-01T15:57:38.303Z,36.99
2019-05-01T16:00:13.276Z,37.18
2019-05-01T16:02:45.795Z,37.22
2019-05-01T16:05:17.756Z,37.22
2019-05-01T16:07:49.473Z,37.43
2019-05-01T16:10:26.649Z,37.44
2019-05-01T16:13:01.012Z,37.44
2019-05-01T16:15:36.356Z,37.37
2019-05-01T16:18:08.293Z,37.34
2019-05-01T16:20:39.743Z,37.18
2019-05-01T16:23:11.522Z,37.18
2019-05-01T16:25:43.227Z,37.07
2019-05-01T16:28:15.092Z,37.07
2019-05-01T16:30:47.233Z,37.23
2019-05-01T16:33:19.094Z,37.23
2019-05-01T16:35:51.498Z,37.14
2019-05-01T16:38:37.260Z,37.10
2019-05-01T16:41:09.727Z,37.04
2019-05-01T16:43:42.057Z,37.04
2019-05-01T16:46:13.706Z,36.93
2019-05-01T16:48:45.886Z,36.65
2019-05-01T16:51:17.515Z,36.73
2019-05-01T16:53:49.227Z,36.59
2019-05-01T16:56:20.965Z,36.53
2019-05-01T16:58:52.908Z,36.49
2019-05-01T17:01:49.795Z,36.98
2019-05-01T17:04:30.104Z,36.98
2019-05-01T17:07:17.053Z,37.01
2019-05-01T17:10:14.240Z,36.73
2019-05-01T17:12:49.648Z,36.73
2019-05-01T17:15:29.251Z,36.69
2019-05-01T17:18:01.265Z,36.54
2019-05-01T17:20:33.258Z,36.57
2019-05-01T17:23:06.491Z,36.33
2019-05-01T17:25:38.210Z,36.34
2019-05-01T17:28:10.291Z,36.34
2019-05-01T17:30:44.700Z,36.40
2019-05-01T17:33:20.655Z,36.63
2019-05-01T17:35:50.198Z,36.63
2019-05-01T17:38:22.228Z,36.82
2019-05-01T17:40:54.108Z,36.54
2019-05-01T17:43:26.322Z,36.60
2019-05-01T17:45:57.870Z,36.52
2019-05-01T17:48:33.750Z,36.52
2019-05-01T17:51:03.537Z,36.40
2019-05-01T17:53:35.158Z,36.29
2019-05-01T17:56:10.110Z,36.17
2019-05-01T17:58:40.271Z,36.36
2019-05-01T18:01:33.410Z,36.20
2019-05-01T18:04:19.438Z,36.20
2019-05-01T18:06:51.742Z,35.86
2019-05-01T18:09:23.526Z,35.86
2019-05-01T18:11:55.267Z,35.84
2019-05-01T18:14:26.956Z,35.98
2019-05-01T18:16:59.404Z,36.09
2019-05-01T18:19:31.237Z,36.09
2019-05-01T18:22:16.078Z,35.83
2019-05-01T18:25:06.827Z,35.96
2019-05-01T18:28:16.407Z,35.98
2019-05-01T18:30:51.683Z,36.05
2019-05-01T18:33:25.857Z,36.05
2019-05-01T18:35:55.648Z,35.79
2019-05-01T18:38:43.016Z,35.79
2019-05-01T18:41:27.400Z,35.83
2019-05-01T18:43:58.946Z,35.49
2019-05-01T18:46:30.961Z,35.49
2019-05-01T18:49:02.782Z,35.60
2019-05-01T18:51:36.231Z,35.53
2019-05-01T18:54:08.020Z,35.62
2019-05-01T18:56:39.765Z,35.23
2019-05-01T18:59:11.596Z,35.23
2019-05-01T19:01:48.408Z,35.37
2019-05-01T19:04:18.383Z,35.51
2019-05-01T19:06:51.382Z,35.29
2019-05-01T19:09:29.696Z,35.21
2019-05-01T19:11:56.480Z,34.97
2019-05-01T19:14:30.641Z,34.97
2019-05-01T19:17:02.060Z,35.16
2019-05-01T19:19:33.821Z,34.98
2019-05-01T19:22:06.393Z,34.98
2019-05-01T19:24:39.994Z,35.05
2019-05-01T19:27:14.171Z,35.07
2019-05-01T19:29:47.257Z,35.00
2019-05-01T19:32:19.995Z,34.86
2019-05-01T19:34:53.747Z,34.73
2019-05-01T19:37:29.265Z,35.05
2019-05-01T19:39:59.302Z,34.91
2019-05-01T19:42:31.031Z,34.96
2019-05-01T19:45:02.609Z,35.00
2019-05-01T19:47:35.379Z,34.94
2019-05-01T19:50:10.307Z,34.94
2019-05-01T19:52:42.390Z,34.79
2019-05-01T19:55:14.167Z,35.09
2019-05-01T19:57:45.806Z,34.66
2019-05-01T20:00:21.761Z,34.66
2019-05-01T20:02:54.310Z,34.91
2019-05-01T20:05:28.857Z,34.83
2019-05-01T20:08:00.884Z,34.93
2019-05-01T20:10:32.586Z,34.70
2019-05-01T20:13:07.130Z,34.86
2019-05-01T20:15:37.441Z,34.85
2019-05-01T20:18:09.148Z,34.85
2019-05-01T20:20:41.076Z,34.50
2019-05-01T20:23:12.716Z,34.60
2019-05-01T20:25:44.515Z,34.62
2019-05-01T20:28:16.000Z,34.64
2019-05-01T20:30:49.527Z,34.61
2019-05-01T20:33:21.563Z,34.47
2019-05-01T20:36:00.574Z,34.47
2019-05-01T20:38:30.385Z,34.76
2019-05-01T20:41:01.899Z,34.86
2019-05-01T20:43:38.178Z,34.86
2019-05-01T20:46:07.664Z,34.63
2019-05-01T20:48:39.901Z,34.68
2019-05-01T20:51:11.542Z,34.44
2019-05-01T20:53:43.250Z,34.44
2019-05-01T20:56:38.469Z,34.62
2019-05-01T20:59:10.342Z,34.44
2019-05-01T21:01:42.822Z,34.28
2019-05-01T21:04:36.074Z,34.46
2019-05-01T21:07:19.916Z,34.47
2019-05-01T21:09:57.303Z,34.47
2019-05-01T21:12:23.925Z,34.57
2019-05-01T21:14:55.376Z,34.28
2019-05-01T21:17:27.257Z,34.36
2019-05-01T21:19:58.733Z,34.35
2019-05-01T21:22:30.360Z,34.07
2019-05-01T21:25:01.886Z,34.07
2019-05-01T21:27:33.679Z,34.31
2019-05-01T21:30:06.047Z,34.01
2019-05-01T21:32:37.516Z,34.08
2019-05-01T21:35:09.473Z,34.15
2019-05-01T21:37:41.137Z,34.15
2019-05-01T21:40:13.718Z,34.01
2019-05-01T21:42:47.341Z,33.96
2019-05-01T21:45:18.866Z,33.96
2019-05-01T21:47:52.756Z,33.89
2019-05-01T21:50:26.479Z,33.85
2019-05-01T21:53:03.247Z,33.99
2019-05-01T21:55:32.435Z,33.99
2019-05-01T21:58:05.181Z,33.92
2019-05-01T22:00:40.729Z,33.81
2019-05-01T22:03:16.592Z,33.74
2019-05-01T22:05:50.374Z,33.44
2019-05-01T22:08:22.442Z,33.44
2019-05-01T22:10:57.570Z,33.81
2019-05-01T22:13:29.851Z,33.81
2019-05-01T22:16:08.709Z,33.76
2019-05-01T22:18:47.138Z,34.09
2019-05-01T22:21:43.556Z,33.77
2019-05-01T22:24:41.512Z,33.81
2019-05-01T22:27:22.967Z,33.66
2019-05-01T22:30:05.879Z,33.54
2019-05-01T22:32:41.298Z,33.37
2019-05-01T22:35:17.120Z,33.37
2019-05-01T22:37:48.626Z,33.45
2019-05-01T22:40:25.237Z,33.29
2019-05-01T22:42:57.479Z,33.18
2019-05-01T22:45:29.578Z,33.26
2019-05-01T22:48:01.443Z,33.26
2019-05-01T22:50:32.868Z,33.21
2019-05-01T22:53:07.975Z,33.53
2019-05-01T22:55:37.744Z,33.03
2019-05-01T22:58:09.143Z,33.36
2019-05-01T23:00:46.302Z,33.36
2019-05-01T23:03:25.341Z,33.22
2019-05-01T23:05:57.069Z,32.84
2019-05-01T23:08:28.491Z,32.63
2019-05-01T23:11:00.893Z,32.88
2019-05-01T23:13:33.128Z,32.80
2019-05-01T23:16:05.742Z,32.45
2019-05-01T23:18:37.302Z,32.45
2019-05-01T23:21:09.760Z,32.58
2019-05-01T23:23:42.340Z,32.34
2019-05-01T23:26:16.543Z,32.35
2019-05-01T23:28:47.509Z,32.73
2019-05-01T23:31:19.676Z,32.67
2019-05-01T23:33:51.899Z,32.67
2019-05-01T23:36:24.031Z,32.72
2019-05-01T23:38:55.669Z,32.63
2019-05-01T23:41:44.616Z,32.65
2019-05-01T23:44:03.404Z,32.65
2019-05-01T23:46:34.469Z,32.37
2019-05-01T23:49:05.926Z,32.23
2019-05-01T23:51:37.769Z,32.34
2019-05-01T23:54:09.241Z,32.45
2019-05-01T23:56:40.937Z,32.24
2019-05-01T23:59:12.702Z,32.24
